Time;durP1;ratioP1;P1;durP2;ratioP2;P2;SDS_P1;SDS_P2;PMS_P1;PMS_P2;Temp;Humidity;BMP_temperature;BMP_pressure;BME280_temperature;BME280_humidity;BME280_pressure;Samples;Min_cycle;Max_cycle;Signal;HPM_P1;HPM_P2
2022/03/31 00:03:36;;;;;;;9.90;4.20;;;;;;;-0.12;67.95;99513.59;3532867;82;98994;-85
2022/03/31 00:08:37;;;;;;;10.40;3.63;;;;;;;-0.17;67.53;99514.37;3525106;82;98979;-85
2022/03/31 00:13:41;;;;;;;11.73;3.57;;;;;;;-0.22;67.98;99511.27;3533030;82;98697;-85
2022/03/31 00:18:41;;;;;;;9.20;3.57;;;;;;;-0.23;67.72;99512.40;3518023;82;98520;-88
2022/03/31 00:23:42;;;;;;;7.33;2.85;;;;;;;-0.29;68.19;99513.71;3513378;82;98150;-85
2022/03/31 00:28:43;;;;;;;8.67;3.97;;;;;;;-0.35;68.56;99501.51;3515502;82;98383;-85
2022/03/31 00:33:44;;;;;;;9.87;3.27;;;;;;;-0.37;68.67;99507.02;3498390;83;98636;-85
2022/03/31 00:39:28;;;;;;;9.90;3.70;;;;;;;-0.40;68.81;99500.34;3523000;83;98494;-85
2022/03/31 00:43:48;;;;;;;11.40;4.77;;;;;;;-0.41;69.19;99505.52;3521492;82;98845;-85
2022/03/31 00:48:49;;;;;;;10.03;3.80;;;;;;;-0.44;68.92;99502.69;3514980;82;98980;-85
2022/03/31 00:53:51;;;;;;;11.77;3.90;;;;;;;-0.48;69.31;99503.09;3528658;83;98379;-85
2022/03/31 00:58:54;;;;;;;8.93;3.60;;;;;;;-0.54;69.36;99494.41;3510853;82;98455;-87
2022/03/31 01:03:55;;;;;;;10.63;3.33;;;;;;;-0.58;69.28;99499.41;3518657;82;98553;-84
2022/03/31 01:08:56;;;;;;;9.07;3.30;;;;;;;-0.62;69.22;99495.22;3520107;82;98683;-91
2022/03/31 01:13:58;;;;;;;10.53;3.87;;;;;;;-0.64;69.12;99496.12;3495794;83;98715;-86
2022/03/31 01:19:08;;;;;;;11.93;3.97;;;;;;;-0.68;69.24;99488.42;3533469;82;98842;-86
2022/03/31 01:24:14;;;;;;;13.50;4.30;;;;;;;-0.71;69.63;99486.94;3486854;83;98666;-85
2022/03/31 01:29:14;;;;;;;10.37;4.17;;;;;;;-0.77;69.70;99490.94;3512429;83;98657;-86
2022/03/31 01:34:15;;;;;;;9.80;4.30;;;;;;;-0.82;69.99;99487.84;3494364;82;98998;-88
2022/03/31 01:39:15;;;;;;;8.63;3.90;;;;;;;-0.85;70.39;99485.00;3509792;82;98785;-87
2022/03/31 01:44:16;;;;;;;9.13;3.33;;;;;;;-0.92;70.55;99489.58;3505775;82;98743;-88
2022/03/31 01:49:17;;;;;;;11.10;3.75;;;;;;;-0.95;70.64;99482.66;3488452;82;98761;-89
2022/03/31 01:54:18;;;;;;;8.33;3.67;;;;;;;-1.00;71.05;99477.47;3513199;83;98513;-89
2022/03/31 01:59:19;;;;;;;8.93;4.07;;;;;;;-1.06;70.94;99473.33;3497082;83;98542;-88
2022/03/31 02:04:20;;;;;;;10.30;3.77;;;;;;;-1.10;70.98;99480.52;3487136;82;98580;-86
2022/03/31 02:09:21;;;;;;;8.03;3.60;;;;;;;-1.13;70.96;99497.34;3521349;82;98842;-85
2022/03/31 02:14:22;;;;;;;8.77;3.40;;;;;;;-1.16;70.86;99496.08;3518265;83;98855;-89
2022/03/31 02:19:24;;;;;;;9.23;3.77;;;;;;;-1.18;71.03;99492.11;3510624;83;98648;-92
2022/03/31 02:24:25;;;;;;;11.50;4.93;;;;;;;-1.22;70.96;99490.63;3512471;83;98344;-85
2022/03/31 02:29:26;;;;;;;11.63;3.80;;;;;;;-1.25;71.12;99489.94;3529969;82;98495;-88
2022/03/31 02:34:28;;;;;;;11.30;4.20;;;;;;;-1.27;71.19;99494.06;3504562;83;98773;-87
2022/03/31 02:39:29;;;;;;;9.47;3.47;;;;;;;-1.28;70.56;99500.55;3531864;82;98811;-88
2022/03/31 02:44:30;;;;;;;9.47;3.47;;;;;;;-1.30;70.48;99497.39;3513025;83;98777;-88
2022/03/31 02:49:31;;;;;;;8.13;3.35;;;;;;;-1.33;70.40;99497.48;3530565;83;98745;-87
2022/03/31 02:59:51;;;;;;;10.13;4.07;;;;;;;-1.37;70.35;99506.55;3505487;83;97684;-88
2022/03/31 03:04:52;;;;;;;10.40;4.00;;;;;;;-1.38;70.25;99502.27;3499562;82;98677;-89
2022/03/31 03:09:53;;;;;;;11.23;3.73;;;;;;;-1.40;70.19;99498.53;3536042;81;98923;-86
2022/03/31 03:14:54;;;;;;;10.27;3.57;;;;;;;-1.43;69.95;99500.51;3477112;84;98888;-92
2022/03/31 03:19:55;;;;;;;13.17;4.03;;;;;;;-1.45;70.19;99504.64;3536261;82;98809;-93
2022/03/31 03:24:56;;;;;;;7.07;3.20;;;;;;;-1.46;69.90;99504.41;3528277;82;98959;-89
2022/03/31 03:29:57;;;;;;;9.97;3.70;;;;;;;-1.51;69.94;99493.23;3538472;82;34873;-88
2022/03/31 03:34:58;;;;;;;9.50;3.73;;;;;;;-1.54;70.01;99503.88;3550883;82;98606;-88
2022/03/31 03:40:01;;;;;;;8.88;3.54;;;;;;;-1.56;69.72;99500.69;3539561;82;98747;-87
2022/03/31 03:45:02;;;;;;;9.43;3.70;;;;;;;-1.58;69.74;99507.74;3535440;82;98891;-86
2022/03/31 03:50:04;;;;;;;6.80;2.30;;;;;;;-1.60;69.50;99505.94;3540477;82;98711;-86
2022/03/31 03:55:07;;;;;;;17.27;6.93;;;;;;;-1.62;69.75;99501.97;3526751;82;98529;-85
2022/03/31 04:00:09;;;;;;;10.32;4.15;;;;;;;-1.65;69.56;99503.40;3529466;82;32986;-87
2022/03/31 04:05:10;;;;;;;9.88;4.08;;;;;;;-1.68;69.61;99501.90;3535505;82;98630;-87
2022/03/31 04:10:11;;;;;;;10.03;3.90;;;;;;;-1.68;69.59;99497.86;3549937;81;98767;-87
2022/03/31 04:15:13;;;;;;;10.10;4.07;;;;;;;-1.70;69.47;99510.88;3522866;82;98782;-87
2022/03/31 04:20:14;;;;;;;14.97;5.17;;;;;;;-1.74;69.51;99516.12;3551879;82;98891;-88
2022/03/31 04:25:15;;;;;;;10.77;4.20;;;;;;;-1.76;69.42;99516.20;3528385;82;98889;-85
2022/03/31 04:30:20;;;;;;;8.87;2.90;;;;;;;-1.81;69.44;99512.31;3555712;82;32580;-87
2022/03/31 04:35:19;;;;;;;7.10;3.07;;;;;;;-1.81;69.79;99519.05;3539890;82;98317;-86
2022/03/31 04:40:21;;;;;;;9.37;3.30;;;;;;;-1.86;69.48;99525.38;3532788;82;98568;-87
2022/03/31 04:45:22;;;;;;;6.17;2.58;;;;;;;-1.86;69.68;99525.38;3548861;82;99167;-89
2022/03/31 04:50:23;;;;;;;7.77;3.60;;;;;;;-1.87;69.78;99531.88;3582673;80;99054;-87
2022/03/31 04:55:25;;;;;;;9.23;3.60;;;;;;;-1.88;69.95;99523.56;3524086;81;98745;-89
2022/03/31 05:00:26;;;;;;;8.33;2.73;;;;;;;-1.89;70.53;99519.28;3549557;82;32575;-86
2022/03/31 05:05:27;;;;;;;8.33;2.87;;;;;;;-1.85;69.82;99518.89;3553115;81;98479;-86
2022/03/31 05:10:28;;;;;;;10.53;3.10;;;;;;;-1.83;70.26;99521.25;3533087;82;98948;-87
2022/03/31 05:15:29;;;;;;;7.90;3.67;;;;;;;-1.79;69.97;99533.80;3535782;82;98928;-85
2022/03/31 05:20:30;;;;;;;8.47;3.40;;;;;;;-1.79;69.97;99533.80;3517367;82;98723;-85
2022/03/31 05:25:31;;;;;;;7.37;2.97;;;;;;;-1.75;69.87;99538.00;3542798;82;99121;-86
2022/03/31 05:30:32;;;;;;;7.70;2.93;;;;;;;-1.71;69.77;99541.66;3530213;82;32539;-85
2022/03/31 05:35:34;;;;;;;6.57;2.77;;;;;;;-1.67;69.68;99552.03;3518098;82;98580;-85
2022/03/31 05:40:41;;;;;;;10.77;3.60;;;;;;;-1.66;69.81;99548.22;3526077;82;99045;-84
2022/03/31 05:45:42;;;;;;;8.10;3.25;;;;;;;-1.65;69.43;99549.25;3533399;82;98855;-87
2022/03/31 05:50:43;;;;;;;10.83;3.90;;;;;;;-1.61;69.60;99548.86;3530533;82;98698;-82
2022/03/31 05:55:45;;;;;;;8.23;3.08;;;;;;;-1.56;69.46;99543.85;3541667;80;98980;-83
2022/03/31 06:00:46;;;;;;;6.63;3.10;;;;;;;-1.53;69.01;99546.70;3550242;82;29069;-83
2022/03/31 06:05:47;;;;;;;8.60;3.53;;;;;;;-1.47;69.00;99549.50;3514203;82;98576;-82
2022/03/31 06:10:48;;;;;;;7.70;2.83;;;;;;;-1.37;68.50;99553.20;3547322;82;98902;-83
2022/03/31 06:15:49;;;;;;;8.60;3.70;;;;;;;-1.25;68.33;99556.06;3513769;82;99281;-83
2022/03/31 06:20:50;;;;;;;13.57;3.70;;;;;;;-1.14;68.25;99565.95;3535138;82;98769;-83
2022/03/31 06:25:52;;;;;;;10.90;3.63;;;;;;;-1.03;68.31;99565.30;3532064;82;98896;-83
2022/03/31 06:30:53;;;;;;;9.37;3.30;;;;;;;-0.92;67.49;99574.64;3560842;82;33012;-83
2022/03/31 06:35:54;;;;;;;12.47;4.00;;;;;;;-0.83;67.33;99569.98;3513536;82;98505;-83
2022/03/31 06:41:08;;;;;;;13.70;3.80;;;;;;;-0.80;67.13;99582.86;3522214;82;99120;-83
2022/03/31 06:46:10;;;;;;;7.95;2.90;;;;;;;-0.72;67.07;99571.80;3503867;82;98814;-84
2022/03/31 06:51:11;;;;;;;13.77;3.90;;;;;;;-0.62;66.71;99578.98;3540026;81;99024;-84
2022/03/31 06:56:16;;;;;;;10.77;4.63;;;;;;;-0.51;66.81;99561.29;3548810;81;98876;-82
2022/03/31 07:01:17;;;;;;;7.43;3.40;;;;;;;-0.36;66.94;99564.80;3511059;81;98588;-82
2022/03/31 07:06:18;;;;;;;10.60;3.37;;;;;;;-0.21;66.34;99556.91;3509395;83;97954;-84
2022/03/31 07:11:19;;;;;;;9.97;3.67;;;;;;;-0.07;66.04;99553.42;3531762;81;98630;-84
2022/03/31 07:16:20;;;;;;;10.73;3.63;;;;;;;0.16;65.91;99544.42;3540730;81;98744;-82
2022/03/31 07:21:21;;;;;;;8.70;3.50;;;;;;;0.33;65.39;99551.08;3558533;82;98514;-83
2022/03/31 07:26:24;;;;;;;9.63;3.67;;;;;;;0.58;64.72;99557.63;3545428;82;98808;-83
2022/03/31 07:31:28;;;;;;;9.00;3.85;;;;;;;0.75;64.83;99560.72;3547074;81;98278;-82
2022/03/31 07:36:30;;;;;;;9.80;4.57;;;;;;;0.96;63.89;99558.21;3565560;82;32041;-83
2022/03/31 07:41:30;;;;;;;10.93;3.70;;;;;;;1.23;63.95;99564.92;3535545;82;98049;-84
2022/03/31 07:46:32;;;;;;;7.27;3.10;;;;;;;1.45;63.01;99564.50;3548774;82;98353;-83
2022/03/31 07:51:33;;;;;;;7.97;3.43;;;;;;;1.68;63.48;99557.50;3545829;82;98433;-84
2022/03/31 07:56:35;;;;;;;9.97;3.50;;;;;;;1.88;62.65;99572.33;3540471;82;98369;-85
2022/03/31 08:01:36;;;;;;;11.23;4.10;;;;;;;2.03;61.52;99575.68;3533318;82;98659;-83
2022/03/31 08:06:37;;;;;;;8.17;3.33;;;;;;;2.23;61.34;99576.66;3539738;82;32428;-84
2022/03/31 08:11:39;;;;;;;10.37;3.17;;;;;;;2.38;60.97;99572.69;3518972;82;98349;-83
2022/03/31 08:16:41;;;;;;;16.37;4.10;;;;;;;2.56;60.68;99566.42;3526174;82;98313;-82
2022/03/31 08:21:43;;;;;;;7.87;3.90;;;;;;;2.83;60.22;99567.78;3525587;82;99023;-84
2022/03/31 08:26:46;;;;;;;9.07;3.23;;;;;;;3.04;59.66;99564.84;3527381;82;98395;-84
2022/03/31 08:31:47;;;;;;;8.77;3.80;;;;;;;3.25;59.23;99558.05;3517129;82;98338;-83
2022/03/31 08:36:48;;;;;;;11.57;4.00;;;;;;;3.53;59.99;99575.64;3539446;82;25961;-85
2022/03/31 08:41:53;;;;;;;10.05;3.67;;;;;;;3.80;58.17;99559.78;3524905;82;98442;-85
2022/03/31 08:46:53;;;;;;;11.30;3.70;;;;;;;4.16;58.64;99555.39;3531056;82;98322;-88
2022/03/31 08:51:54;;;;;;;8.80;3.27;;;;;;;4.57;56.98;99565.05;3509647;82;99394;-86
2022/03/31 08:56:55;;;;;;;8.80;4.07;;;;;;;4.85;55.87;99570.30;3523716;82;98316;-84
2022/03/31 09:01:56;;;;;;;12.80;4.03;;;;;;;5.09;54.73;99555.77;3516665;82;98561;-86
2022/03/31 09:07:07;;;;;;;10.15;4.55;;;;;;;5.61;53.50;99563.30;3525577;82;33065;-86
2022/03/31 09:12:08;;;;;;;14.05;5.15;;;;;;;6.14;52.77;99549.94;3510399;82;98533;-88
2022/03/31 09:17:11;;;;;;;14.10;4.73;;;;;;;6.41;52.33;99545.45;3512230;83;98795;-86
2022/03/31 09:22:13;;;;;;;12.40;3.60;;;;;;;6.77;51.33;99534.38;3510420;83;98662;-86
2022/03/31 09:27:14;;;;;;;12.50;4.05;;;;;;;7.22;50.18;99539.56;3523867;83;98629;-84
2022/03/31 09:32:15;;;;;;;12.05;3.27;;;;;;;7.26;46.51;99535.69;3505913;82;98820;-85
2022/03/31 09:37:18;;;;;;;11.90;5.70;;;;;;;7.14;46.14;99526.39;3521689;82;98465;-85
2022/03/31 09:42:19;;;;;;;11.83;3.90;;;;;;;7.74;45.61;99523.61;3506021;83;98561;-85
2022/03/31 09:47:19;;;;;;;6.93;3.33;;;;;;;7.94;44.30;99524.14;3515172;83;98714;-83
2022/03/31 09:52:21;;;;;;;10.43;3.90;;;;;;;8.13;43.16;99518.41;3517828;83;98715;-83
2022/03/31 09:57:23;;;;;;;10.20;3.87;;;;;;;8.22;42.86;99516.92;3533975;82;98553;-83
2022/03/31 10:02:25;;;;;;;10.10;5.07;;;;;;;8.71;42.19;99509.50;3515242;82;98510;-81
2022/03/31 10:07:29;;;;;;;16.00;5.45;;;;;;;8.97;41.38;99514.12;3515710;83;98535;-82
2022/03/31 10:12:41;;;;;;;9.28;4.40;;;;;;;9.52;40.66;99507.72;3588608;77;98832;-83
2022/03/31 10:17:43;;;;;;;9.68;4.33;;;;;;;9.64;40.23;99516.36;3670648;78;98240;-84
2022/03/31 10:28:22;;;;;;;12.45;4.78;;;;;;;9.83;38.50;99517.93;3672893;79;98789;-81
2022/03/31 10:33:42;;;;;;;8.25;3.42;;;;;;;9.80;37.83;99519.50;3658369;78;98653;-82
2022/03/31 10:38:58;;;;;;;11.15;4.10;;;;;;;9.76;38.18;99514.59;3655901;79;98509;-81
2022/03/31 10:44:14;;;;;;;9.53;3.30;;;;;;;10.09;38.42;99505.17;3666471;79;98638;-82
2022/03/31 10:49:20;;;;;;;12.55;4.10;;;;;;;10.20;36.00;99508.08;3691601;78;97773;-80
2022/03/31 10:54:33;;;;;;;9.20;4.25;;;;;;;10.23;34.46;99505.13;3647985;78;98485;-81
2022/03/31 10:59:37;;;;;;;16.00;4.60;;;;;;;10.24;35.42;99491.59;3673278;79;98566;-81
2022/03/31 11:04:54;;;;;;;14.77;3.90;;;;;;;10.54;35.69;99498.17;3667092;79;98731;-81
2022/03/31 11:10:08;;;;;;;8.00;3.58;;;;;;;10.77;35.67;99502.59;3684536;78;99095;-81
2022/03/31 11:15:16;;;;;;;9.95;3.77;;;;;;;10.78;34.45;99492.35;3618503;79;99052;-81
2022/03/31 11:20:24;;;;;;;9.28;3.80;;;;;;;10.65;33.89;99496.17;3630424;79;98631;-82
2022/03/31 11:25:27;;;;;;;10.05;4.65;;;;;;;10.37;32.70;99492.12;3622050;79;98612;-84
2022/03/31 11:30:32;;;;;;;13.15;4.58;;;;;;;10.33;31.77;99495.49;3642525;79;34976;-81
2022/03/31 11:35:33;;;;;;;8.63;3.77;;;;;;;10.03;32.42;99480.01;3625745;79;98799;-81
2022/03/31 11:40:43;;;;;;;9.47;3.33;;;;;;;9.98;33.04;99467.27;3630175;79;98653;-80
2022/03/31 11:45:48;;;;;;;8.53;3.20;;;;;;;10.06;31.56;99463.34;3616274;79;99013;-81
2022/03/31 11:50:56;;;;;;;7.45;2.72;;;;;;;10.00;32.25;99451.95;3622184;79;98603;-79
2022/03/31 11:56:05;;;;;;;11.63;3.12;;;;;;;10.00;32.25;99451.95;3597697;80;98747;-83
2022/03/31 12:01:06;;;;;;;10.15;3.58;;;;;;;10.12;30.89;99448.81;3639844;79;34808;-78
2022/03/31 12:06:08;;;;;;;14.17;3.97;;;;;;;9.88;31.38;99426.24;3669224;79;98432;-80
2022/03/31 12:11:13;;;;;;;8.20;3.57;;;;;;;9.85;31.44;99436.67;3630287;79;98740;-80
2022/03/31 12:16:14;;;;;;;11.87;4.10;;;;;;;9.69;31.59;99435.50;3673773;79;98427;-81
2022/03/31 12:21:16;;;;;;;9.05;3.30;;;;;;;9.44;31.56;99438.88;3670824;79;98590;-82
2022/03/31 12:26:23;;;;;;;10.65;3.27;;;;;;;9.44;31.14;99435.52;3604059;79;98469;-82
2022/03/31 12:31:29;;;;;;;7.70;3.05;;;;;;;9.17;31.28;99422.59;3621768;79;98425;-81
2022/03/31 12:36:33;;;;;;;6.95;2.22;;;;;;;9.24;31.76;99409.66;3620544;79;26582;-80
2022/03/31 12:41:38;;;;;;;8.63;2.95;;;;;;;9.13;30.61;99413.57;3675601;79;98640;-82
2022/03/31 12:46:53;;;;;;;11.10;4.83;;;;;;;9.01;29.77;99429.84;3643228;79;98094;-79
2022/03/31 12:51:58;;;;;;;10.93;5.53;;;;;;;8.82;31.52;99418.42;3649356;79;98522;-81
2022/03/31 12:57:20;;;;;;;10.50;3.17;;;;;;;8.97;30.71;99418.65;3652971;79;98575;-81
2022/03/31 13:02:21;;;;;;;6.08;2.40;;;;;;;8.85;30.31;99424.52;3629082;79;98584;-82
2022/03/31 13:07:27;;;;;;;10.80;3.03;;;;;;;8.60;30.22;99433.27;3663973;79;97483;-80
2022/03/31 13:12:29;;;;;;;6.47;2.58;;;;;;;8.46;30.40;99427.15;3641329;79;98649;-80
2022/03/31 13:17:31;;;;;;;8.15;2.83;;;;;;;8.48;30.68;99432.25;3661011;79;98224;-80
2022/03/31 13:22:33;;;;;;;22.62;7.55;;;;;;;8.46;30.05;99426.38;3656997;79;98514;-80
2022/03/31 13:27:36;;;;;;;7.60;2.83;;;;;;;8.41;30.77;99429.49;3627039;79;98521;-78
2022/03/31 13:32:38;;;;;;;11.80;3.08;;;;;;;8.38;29.58;99418.70;3621092;79;98344;-79
2022/03/31 13:37:41;;;;;;;16.07;5.42;;;;;;;8.38;30.28;99408.32;3629223;79;98415;-80
2022/03/31 13:42:44;;;;;;;14.57;4.77;;;;;;;8.40;29.95;99415.59;3630589;79;98186;-81
2022/03/31 13:47:50;;;;;;;14.35;3.30;;;;;;;8.31;30.03;99411.05;3636183;79;98397;-81
2022/03/31 13:53:43;;;;;;;9.23;3.57;;;;;;;8.16;29.46;99395.67;3648781;79;98454;-81
2022/03/31 14:03:14;;;;;;;10.60;3.77;;;;;;;8.14;30.92;99398.83;3636699;79;98455;-79
2022/03/31 14:08:17;;;;;;;9.13;3.75;;;;;;;8.32;31.17;99387.94;3636169;79;98872;-80
2022/03/31 14:13:20;;;;;;;10.25;3.77;;;;;;;8.30;29.47;99384.81;3639701;79;98362;-80
2022/03/31 14:18:21;;;;;;;10.05;3.27;;;;;;;8.18;29.44;99395.49;3639073;79;35121;-81
2022/03/31 14:23:22;;;;;;;6.33;2.93;;;;;;;8.15;29.88;99370.25;3627457;79;98391;-82
2022/03/31 14:28:23;;;;;;;7.20;2.90;;;;;;;8.07;31.06;99365.89;3672077;79;98268;-81
2022/03/31 14:33:26;;;;;;;5.53;2.73;;;;;;;8.14;30.14;99350.87;3644178;79;98600;-82
2022/03/31 14:38:28;;;;;;;8.73;2.95;;;;;;;8.10;31.32;99353.37;3622484;79;98353;-82
2022/03/31 14:43:29;;;;;;;12.23;3.27;;;;;;;8.15;31.08;99349.70;3639170;79;98572;-81
2022/03/31 14:48:30;;;;;;;7.47;3.07;;;;;;;8.17;30.71;99354.77;3677311;79;26705;-84
2022/03/31 14:53:32;;;;;;;12.33;5.40;;;;;;;8.09;30.03;99347.70;3649830;79;98311;-81
2022/03/31 14:58:35;;;;;;;10.60;3.98;;;;;;;7.88;30.06;99352.52;3650497;79;98373;-83
2022/03/31 15:03:38;;;;;;;10.75;3.85;;;;;;;7.82;29.92;99354.06;3658127;79;98558;-81
2022/03/31 15:08:39;;;;;;;10.72;2.55;;;;;;;7.71;30.09;99342.27;3655183;79;98542;-79
2022/03/31 15:18:59;;;;;;;7.72;2.80;;;;;;;7.72;30.09;99336.98;3690291;79;34843;-82
2022/03/31 15:24:00;;;;;;;13.03;4.50;;;;;;;7.67;29.77;99326.40;3669835;79;97962;-80
2022/03/31 15:29:01;;;;;;;10.00;3.87;;;;;;;7.69;30.87;99325.42;3636002;79;98365;-79
2022/03/31 15:34:04;;;;;;;12.63;3.92;;;;;;;7.56;30.61;99320.66;3636332;78;98835;-81
2022/03/31 15:39:05;;;;;;;10.98;3.50;;;;;;;7.43;30.11;99324.33;3635007;79;98527;-81
2022/03/31 15:44:08;;;;;;;27.67;13.23;;;;;;;7.34;30.65;99324.44;3640189;79;98448;-82
2022/03/31 15:49:09;;;;;;;12.23;5.47;;;;;;;7.20;30.71;99325.73;3603813;79;34828;-80
2022/03/31 15:54:10;;;;;;;12.73;4.35;;;;;;;7.08;30.93;99322.71;3662432;79;98181;-81
2022/03/31 15:59:13;;;;;;;12.93;3.43;;;;;;;7.07;30.57;99328.56;3662280;79;98372;-79
2022/03/31 16:04:14;;;;;;;12.15;3.80;;;;;;;6.97;31.66;99334.73;3644648;79;98994;-82
2022/03/31 16:09:17;;;;;;;11.80;3.93;;;;;;;6.83;30.77;99334.03;3659517;79;98406;-80
2022/03/31 16:14:18;;;;;;;14.93;4.62;;;;;;;6.73;31.85;99322.45;3659597;79;98547;-81
2022/03/31 16:19:20;;;;;;;14.73;4.70;;;;;;;6.67;31.67;99341.73;3683743;79;98553;-80
2022/03/31 16:24:21;;;;;;;18.82;4.97;;;;;;;6.59;31.54;99328.34;3667540;79;98624;-79
2022/03/31 16:29:22;;;;;;;16.67;5.83;;;;;;;6.49;30.93;99344.86;3704169;79;98267;-79
2022/03/31 16:34:23;;;;;;;12.60;4.17;;;;;;;6.39;31.75;99337.33;3655727;79;98503;-80
2022/03/31 16:39:29;;;;;;;9.37;3.50;;;;;;;6.33;31.14;99339.44;3671633;79;98520;-80
2022/03/31 16:44:30;;;;;;;18.23;6.50;;;;;;;6.23;31.37;99337.37;3659879;79;98760;-79
2022/03/31 16:49:31;;;;;;;22.83;8.80;;;;;;;6.13;31.99;99342.94;3692330;79;98533;-79
2022/03/31 16:54:33;;;;;;;16.23;4.95;;;;;;;6.05;31.93;99344.00;3629077;79;98232;-79
2022/03/31 16:59:34;;;;;;;11.97;4.40;;;;;;;6.01;32.35;99347.86;3627798;79;98894;-79
2022/03/31 17:04:37;;;;;;;14.17;4.87;;;;;;;5.90;31.78;99349.08;3637181;79;98838;-79
2022/03/31 17:09:40;;;;;;;11.25;3.42;;;;;;;5.83;32.39;99357.19;3665955;79;98493;-78
2022/03/31 17:14:41;;;;;;;14.43;4.33;;;;;;;5.75;32.26;99358.23;3646167;79;98479;-79
2022/03/31 17:19:42;;;;;;;18.27;5.63;;;;;;;5.68;32.68;99366.91;3669316;79;98509;-80
2022/03/31 17:24:43;;;;;;;13.13;5.57;;;;;;;5.63;32.76;99368.59;3655493;79;98196;-80
2022/03/31 17:29:44;;;;;;;14.27;5.87;;;;;;;5.50;32.84;99369.39;3623851;80;98611;-79
2022/03/31 17:34:47;;;;;;;19.63;5.73;;;;;;;5.42;32.92;99371.82;3635045;79;98646;-81
2022/03/31 17:39:48;;;;;;;12.60;5.60;;;;;;;5.32;32.88;99375.17;3679941;79;98459;-79
2022/03/31 17:44:53;;;;;;;29.97;12.23;;;;;;;5.26;33.38;99381.30;3657199;79;98370;-77
2022/03/31 17:49:56;;;;;;;16.87;7.78;;;;;;;5.20;33.88;99390.39;3637022;79;98670;-80
2022/03/31 17:54:57;;;;;;;17.87;7.72;;;;;;;5.14;33.82;99380.14;3667010;79;98226;-81
2022/03/31 17:59:58;;;;;;;22.22;9.80;;;;;;;5.06;34.02;99395.61;3618666;79;98535;-78
2022/03/31 18:04:59;;;;;;;13.63;6.30;;;;;;;5.01;33.80;99395.91;3619309;79;98348;-79
2022/03/31 18:10:03;;;;;;;28.07;11.30;;;;;;;4.96;34.21;99401.66;3621750;79;98528;-80
2022/03/31 18:15:06;;;;;;;16.32;5.83;;;;;;;4.90;34.49;99402.32;3638815;79;99005;-77
2022/03/31 18:20:12;;;;;;;13.90;4.73;;;;;;;4.85;33.89;99404.02;3648351;79;98732;-81
2022/03/31 18:25:20;;;;;;;27.07;8.80;;;;;;;4.76;34.31;99409.68;3629436;79;98452;-79
2022/03/31 18:35:43;;;;;;;28.02;11.53;;;;;;;4.68;34.98;99420.81;3668998;79;98353;-82
2022/03/31 18:41:07;;;;;;;31.37;10.83;;;;;;;4.62;35.34;99427.16;3687172;79;98496;-80
2022/03/31 18:46:10;;;;;;;24.57;10.05;;;;;;;4.57;35.27;99428.81;3568572;81;98750;-81
2022/03/31 18:51:11;;;;;;;17.13;7.33;;;;;;;4.53;35.28;99438.08;3531508;81;98768;-82
2022/03/31 18:56:14;;;;;;;13.67;5.03;;;;;;;4.50;35.64;99436.06;3575073;81;98493;-81
2022/03/31 19:01:18;;;;;;;15.30;4.87;;;;;;;4.45;35.58;99437.71;3573830;81;98525;-80
2022/03/31 19:11:42;;;;;;;14.83;5.08;;;;;;;4.39;35.78;99437.23;3417333;83;98413;-81
2022/03/31 19:16:44;;;;;;;16.60;7.35;;;;;;;4.35;35.87;99454.07;3491096;83;98877;-82
2022/03/31 19:21:46;;;;;;;11.08;4.10;;;;;;;4.31;36.05;99461.96;3487193;82;98493;-79
2022/03/31 19:26:49;;;;;;;18.77;5.30;;;;;;;4.27;35.70;99463.22;3461823;82;98468;-83
2022/03/31 19:31:51;;;;;;;12.00;3.98;;;;;;;4.22;35.65;99452.64;3479446;83;98840;-78
2022/03/31 19:36:52;;;;;;;30.68;10.20;;;;;;;4.18;35.56;99461.31;3444910;84;33286;-80
2022/03/31 19:41:53;;;;;;;47.23;18.35;;;;;;;4.14;35.27;99462.39;3440341;82;98838;-82
2022/03/31 19:46:56;;;;;;;17.50;5.33;;;;;;;4.09;35.90;99461.31;3485300;83;98508;-82
2022/03/31 19:52:00;;;;;;;12.47;4.42;;;;;;;4.04;35.50;99461.59;3475593;83;98457;-79
2022/03/31 19:57:01;;;;;;;18.87;5.65;;;;;;;4.00;35.78;99456.08;3468228;80;98478;-81
2022/03/31 20:02:04;;;;;;;12.95;4.22;;;;;;;3.97;35.84;99458.69;3478433;83;98835;-80
2022/03/31 20:07:09;;;;;;;12.15;5.25;;;;;;;3.91;36.29;99459.56;3484526;83;33440;-80
2022/03/31 20:12:10;;;;;;;15.60;6.22;;;;;;;3.87;35.74;99452.48;3475960;82;98961;-80
2022/03/31 20:17:13;;;;;;;14.20;5.87;;;;;;;3.84;36.06;99457.25;3485096;82;98688;-80
2022/03/31 20:22:15;;;;;;;13.03;4.95;;;;;;;3.82;36.56;99464.41;3476757;83;98537;-80
2022/03/31 20:27:16;;;;;;;16.97;5.87;;;;;;;3.74;36.46;99456.44;3475197;83;98814;-81
2022/03/31 20:32:17;;;;;;;13.70;4.60;;;;;;;3.73;36.47;99465.20;3485497;83;98473;-80
2022/03/31 20:37:18;;;;;;;11.80;5.07;;;;;;;3.69;36.68;99455.36;3486974;83;98461;-80
2022/03/31 20:42:19;;;;;;;18.03;5.70;;;;;;;3.65;36.63;99455.28;3483573;83;98447;-80
2022/03/31 20:47:23;;;;;;;15.70;5.70;;;;;;;3.61;36.61;99459.84;3495009;82;98394;-82
2022/03/31 20:52:25;;;;;;;14.18;5.85;;;;;;;3.56;36.63;99457.98;3467409;83;98514;-81
2022/03/31 20:57:27;;;;;;;15.97;5.73;;;;;;;3.53;36.83;99453.23;3500219;82;98471;-82
2022/03/31 21:02:28;;;;;;;13.22;4.20;;;;;;;3.49;36.70;99446.36;3501490;83;98596;-78
2022/03/31 21:07:30;;;;;;;11.10;4.13;;;;;;;3.44;36.79;99440.42;3496332;84;98405;-79
2022/03/31 21:12:33;;;;;;;14.20;4.93;;;;;;;3.38;36.86;99430.95;3498522;82;98643;-81
2022/03/31 21:17:35;;;;;;;14.75;4.37;;;;;;;3.31;37.11;99429.41;3500632;83;97590;-79
2022/03/31 21:22:36;;;;;;;10.83;4.03;;;;;;;3.22;37.12;99445.14;3496825;83;98686;-80
2022/03/31 21:27:38;;;;;;;13.20;4.33;;;;;;;3.16;37.39;99441.88;3513170;83;98568;-80
2022/03/31 21:32:40;;;;;;;11.85;4.92;;;;;;;3.09;37.27;99433.56;3502148;83;98564;-80
2022/03/31 21:37:41;;;;;;;10.63;4.28;;;;;;;3.05;37.82;99432.67;3487453;82;98470;-79
2022/03/31 21:42:43;;;;;;;9.90;3.45;;;;;;;2.98;37.46;99421.64;3481365;84;98472;-79
2022/03/31 21:47:44;;;;;;;11.83;4.70;;;;;;;2.95;37.52;99421.55;3478280;82;98252;-79
2022/03/31 21:52:45;;;;;;;10.77;3.90;;;;;;;2.89;37.65;99427.80;3456244;82;98700;-80
2022/03/31 21:57:48;;;;;;;16.93;4.93;;;;;;;2.84;38.20;99422.63;3498816;83;98478;-79
2022/03/31 22:02:49;;;;;;;50.43;14.13;;;;;;;2.80;38.15;99424.45;3487091;82;98985;-81
2022/03/31 22:07:50;;;;;;;14.10;5.33;;;;;;;2.77;37.96;99423.81;3493013;82;98788;-79
2022/03/31 22:12:51;;;;;;;12.90;5.60;;;;;;;2.74;38.18;99419.06;3554188;81;98544;-80
2022/03/31 22:17:52;;;;;;;10.40;3.27;;;;;;;2.72;37.91;99413.77;3597487;82;98261;-80
2022/03/31 22:22:53;;;;;;;9.90;3.43;;;;;;;2.66;38.08;99411.89;3551872;81;98602;-81
2022/03/31 22:27:54;;;;;;;14.70;4.57;;;;;;;2.62;38.00;99408.28;3602709;81;98346;-80
2022/03/31 22:32:55;;;;;;;16.63;4.83;;;;;;;2.58;37.99;99411.47;3588975;81;98323;-80
2022/03/31 22:37:55;;;;;;;27.87;6.67;;;;;;;2.56;37.79;99412.98;3575727;81;98542;-81
2022/03/31 22:42:56;;;;;;;25.77;6.77;;;;;;;2.51;38.16;99409.94;3586608;80;98415;-81
2022/03/31 22:47:57;;;;;;;18.37;5.57;;;;;;;2.47;37.89;99409.05;3566177;81;98397;-81
2022/03/31 22:52:58;;;;;;;31.40;7.25;;;;;;;2.44;38.08;99400.81;3577510;82;98452;-81
2022/03/31 22:57:59;;;;;;;13.33;4.60;;;;;;;2.40;38.30;99389.09;3584421;82;98453;-81
2022/03/31 23:03:00;;;;;;;14.93;5.27;;;;;;;2.36;38.05;99395.76;3546464;81;98464;-81
2022/03/31 23:08:01;;;;;;;15.13;5.17;;;;;;;2.31;38.45;99397.39;3548306;82;98503;-80
2022/03/31 23:13:03;;;;;;;13.30;4.63;;;;;;;2.27;38.42;99397.86;3551064;81;98408;-80
2022/03/31 23:18:10;;;;;;;10.80;3.63;;;;;;;2.23;38.21;99394.80;3539654;82;98441;-82
2022/03/31 23:23:11;;;;;;;11.60;3.60;;;;;;;2.21;39.05;99395.17;3559794;82;98520;-81
2022/03/31 23:28:13;;;;;;;12.18;3.87;;;;;;;2.16;38.28;99394.62;3548972;81;98495;-81
2022/03/31 23:33:14;;;;;;;9.57;3.47;;;;;;;2.09;38.24;99374.86;3564478;81;98953;-84
2022/03/31 23:38:15;;;;;;;9.47;3.57;;;;;;;2.05;38.60;99379.97;3574482;82;98243;-82
2022/03/31 23:43:16;;;;;;;9.53;3.10;;;;;;;2.00;38.73;99382.93;3554150;81;98330;-83
2022/03/31 23:48:17;;;;;;;9.37;3.73;;;;;;;1.94;38.89;99375.63;3565813;82;26352;-81
2022/03/31 23:53:19;;;;;;;10.30;3.93;;;;;;;1.93;38.80;99382.73;3570682;81;98181;-81
2022/03/31 23:58:20;;;;;;;8.67;3.33;;;;;;;1.87;39.04;99374.04;3594297;80;98514;-82
